CZFM/ZFM METAR and TAF weather

Enter ICAO airport designator
Station Type Date Time Source
CZFM METAR 2021/09/27 23:00 UTC NOAA

CZFM 272300Z VRB05KT 35SM FEW030 FEW260 03/M08 A2976 RMK CU2CI1 CI TR LAST STFD OBS/NXT 281300Z SLP081


Station Type Date Time Source
CZFM Decoded METAR 2021/09/27 23:00 UTC NOAA

Fort Mcpherson Airport, Canada (CZFM) 67-24N 134-51W
Sep 27, 2021 - 07:00 PM EDT / 2021.09.27 2300 UTC
Wind: Variable at 6 MPH (5 KT):0
Visibility: 35 mile(s):0
Sky conditions: mostly clear
Temperature: 37 F (3 C)
Dew Point: 17 F (-8 C)
Relative Humidity: 44%
Pressure (altimeter): 29.76 in. Hg (1007 hPa)
ob: CZFM 272300Z VRB05KT 35SM FEW030 FEW260 03/M08 A2976 RMK CU2CI1 CI TR LAST STFD OBS/NXT 281300Z SLP081
cycle: 23

Station Type Date Time Source
CZFM TAF 2021/09/27 19:00 UTC NOAA

TAF CZFM 271838Z 2719/2723 VRB03KT P6SM FEW040
RMK NXT FCST WILL BE ISSUED AT 281445Z

Example: see airport list